sensor_id;sensor_type;location;lat;lon;timestamp;pressure;altitude;pressure_sealevel;temperature;humidity
69911;BME280;63555;49.920;17.868;2023-07-13T00:04:10;98265.41;;;17.21;87.41
69911;BME280;63555;49.920;17.868;2023-07-13T00:09:15;98273.44;;;17.13;87.72
69911;BME280;63555;49.920;17.868;2023-07-13T00:14:16;98289.44;;;17.05;87.53
69911;BME280;63555;49.920;17.868;2023-07-13T00:19:17;98302.91;;;16.95;87.21
69911;BME280;63555;49.920;17.868;2023-07-13T00:24:18;98342.03;;;16.86;87.13
69911;BME280;63555;49.920;17.868;2023-07-13T00:29:25;98363.69;;;16.83;87.63
69911;BME280;63555;49.920;17.868;2023-07-13T00:34:25;98360.19;;;16.91;87.63
69911;BME280;63555;49.920;17.868;2023-07-13T00:39:27;98357.84;;;17.04;87.29
69911;BME280;63555;49.920;17.868;2023-07-13T00:44:27;98362.69;;;17.09;86.57
69911;BME280;63555;49.920;17.868;2023-07-13T00:49:30;98350.88;;;17.03;85.99
69911;BME280;63555;49.920;17.868;2023-07-13T00:54:41;98340.72;;;16.91;86.05
69911;BME280;63555;49.920;17.868;2023-07-13T00:59:47;98341.53;;;16.83;86.30
69911;BME280;63555;49.920;17.868;2023-07-13T01:04:49;98345.53;;;16.79;86.65
69911;BME280;63555;49.920;17.868;2023-07-13T01:09:49;98337.06;;;16.92;86.75
69911;BME280;63555;49.920;17.868;2023-07-13T01:14:57;98321.41;;;17.05;86.09
69911;BME280;63555;49.920;17.868;2023-07-13T01:19:57;98322.06;;;17.07;85.70
69911;BME280;63555;49.920;17.868;2023-07-13T01:24:58;98304.75;;;17.03;85.85
69911;BME280;63555;49.920;17.868;2023-07-13T01:29:58;98283.09;;;16.98;85.77
69911;BME280;63555;49.920;17.868;2023-07-13T01:35:04;98286.59;;;16.90;85.81
69911;BME280;63555;49.920;17.868;2023-07-13T01:40:05;98302.75;;;16.80;85.81
69911;BME280;63555;49.920;17.868;2023-07-13T01:45:06;98306.91;;;16.67;85.47
69911;BME280;63555;49.920;17.868;2023-07-13T01:50:06;98299.06;;;16.49;85.48
69911;BME280;63555;49.920;17.868;2023-07-13T01:55:07;98312.13;;;16.34;85.79
69911;BME280;63555;49.920;17.868;2023-07-13T02:00:09;98291.16;;;16.23;86.93
69911;BME280;63555;49.920;17.868;2023-07-13T02:05:11;98280.34;;;16.24;86.64
69911;BME280;63555;49.920;17.868;2023-07-13T02:10:12;98260.72;;;16.25;86.47
69911;BME280;63555;49.920;17.868;2023-07-13T02:15:12;98235.97;;;16.25;86.51
69911;BME280;63555;49.920;17.868;2023-07-13T02:20:12;98223.31;;;16.19;86.52
69911;BME280;63555;49.920;17.868;2023-07-13T02:25:13;98218.47;;;16.14;86.88
69911;BME280;63555;49.920;17.868;2023-07-13T02:30:14;98222.00;;;16.23;87.76
69911;BME280;63555;49.920;17.868;2023-07-13T02:35:14;98228.81;;;16.34;87.88
69911;BME280;63555;49.920;17.868;2023-07-13T02:40:15;98222.81;;;16.40;87.59
69911;BME280;63555;49.920;17.868;2023-07-13T02:45:15;98227.81;;;16.43;87.18
69911;BME280;63555;49.920;17.868;2023-07-13T02:50:16;98238.47;;;16.43;87.18
69911;BME280;63555;49.920;17.868;2023-07-13T02:55:16;98237.63;;;16.42;87.15
69911;BME280;63555;49.920;17.868;2023-07-13T03:00:17;98228.47;;;16.45;87.18
69911;BME280;63555;49.920;17.868;2023-07-13T03:05:18;98235.47;;;16.46;86.99
69911;BME280;63555;49.920;17.868;2023-07-13T03:10:18;98232.50;;;16.49;86.93
69911;BME280;63555;49.920;17.868;2023-07-13T03:15:19;98224.03;;;16.53;86.71
69911;BME280;63555;49.920;17.868;2023-07-13T03:20:19;98220.34;;;16.63;86.89
69911;BME280;63555;49.920;17.868;2023-07-13T03:25:19;98219.56;;;16.70;86.68
69911;BME280;63555;49.920;17.868;2023-07-13T03:30:20;98240.69;;;16.80;86.38
69911;BME280;63555;49.920;17.868;2023-07-13T03:35:20;98252.66;;;16.92;86.32
69911;BME280;63555;49.920;17.868;2023-07-13T03:40:21;98259.63;;;17.01;86.35
69911;BME280;63555;49.920;17.868;2023-07-13T03:45:21;98274.59;;;17.10;86.20
69911;BME280;63555;49.920;17.868;2023-07-13T03:50:22;98272.41;;;17.22;85.83
69911;BME280;63555;49.920;17.868;2023-07-13T03:55:22;98268.91;;;17.38;85.65
69911;BME280;63555;49.920;17.868;2023-07-13T04:00:22;98275.31;;;17.60;85.33
69911;BME280;63555;49.920;17.868;2023-07-13T04:05:23;98277.44;;;17.80;84.92
69911;BME280;63555;49.920;17.868;2023-07-13T04:10:23;98293.84;;;18.00;84.39
69911;BME280;63555;49.920;17.868;2023-07-13T04:15:23;98299.09;;;18.17;84.17
69911;BME280;63555;49.920;17.868;2023-07-13T04:20:25;98299.75;;;18.27;83.96
69911;BME280;63555;49.920;17.868;2023-07-13T04:25:26;98297.97;;;18.42;83.58
69911;BME280;63555;49.920;17.868;2023-07-13T04:30:26;98284.84;;;18.63;83.22
69911;BME280;63555;49.920;17.868;2023-07-13T04:35:26;98289.78;;;18.89;82.87
69911;BME280;63555;49.920;17.868;2023-07-13T04:40:28;98292.56;;;19.19;82.35
69911;BME280;63555;49.920;17.868;2023-07-13T04:45:29;98277.56;;;19.47;81.41
69911;BME280;63555;49.920;17.868;2023-07-13T04:50:31;98280.81;;;19.72;80.66
69911;BME280;63555;49.920;17.868;2023-07-13T04:55:31;98282.63;;;20.01;80.17
69911;BME280;63555;49.920;17.868;2023-07-13T05:00:32;98282.56;;;20.30;78.88
69911;BME280;63555;49.920;17.868;2023-07-13T05:05:32;98281.16;;;20.49;77.84
69911;BME280;63555;49.920;17.868;2023-07-13T05:10:35;98278.34;;;20.57;77.53
69911;BME280;63555;49.920;17.868;2023-07-13T05:15:36;98280.81;;;20.59;77.27
69911;BME280;63555;49.920;17.868;2023-07-13T05:20:36;98279.22;;;20.64;76.34
69911;BME280;63555;49.920;17.868;2023-07-13T05:25:36;98263.84;;;20.73;76.67
69911;BME280;63555;49.920;17.868;2023-07-13T05:30:37;98265.06;;;20.92;76.32
69911;BME280;63555;49.920;17.868;2023-07-13T05:35:37;98265.25;;;20.90;75.90
69911;BME280;63555;49.920;17.868;2023-07-13T05:40:37;98253.66;;;20.83;76.21
69911;BME280;63555;49.920;17.868;2023-07-13T05:45:38;98263.16;;;20.86;75.92
69911;BME280;63555;49.920;17.868;2023-07-13T05:50:40;98264.50;;;20.96;75.78
69911;BME280;63555;49.920;17.868;2023-07-13T05:55:41;98272.44;;;21.11;75.57
69911;BME280;63555;49.920;17.868;2023-07-13T06:00:43;98278.19;;;21.08;75.19
69911;BME280;63555;49.920;17.868;2023-07-13T06:05:43;98285.53;;;20.99;75.23
69911;BME280;63555;49.920;17.868;2023-07-13T06:10:44;98291.88;;;20.92;75.90
69911;BME280;63555;49.920;17.868;2023-07-13T06:15:48;98289.00;;;20.93;76.08
69911;BME280;63555;49.920;17.868;2023-07-13T06:20:49;98296.06;;;21.01;75.76
69911;BME280;63555;49.920;17.868;2023-07-13T06:25:49;98314.50;;;21.11;75.96
69911;BME280;63555;49.920;17.868;2023-07-13T06:30:50;98317.19;;;21.11;75.87
69911;BME280;63555;49.920;17.868;2023-07-13T06:35:51;98329.25;;;21.21;75.79
69911;BME280;63555;49.920;17.868;2023-07-13T06:40:51;98338.06;;;21.37;75.38
69911;BME280;63555;49.920;17.868;2023-07-13T06:45:55;98338.94;;;21.44;75.13
69911;BME280;63555;49.920;17.868;2023-07-13T06:50:55;98341.41;;;21.45;75.13
69911;BME280;63555;49.920;17.868;2023-07-13T06:55:56;98336.06;;;21.45;75.11
69911;BME280;63555;49.920;17.868;2023-07-13T07:00:57;98348.34;;;21.61;75.16
69911;BME280;63555;49.920;17.868;2023-07-13T07:06:19;98364.00;;;21.85;74.22
69911;BME280;63555;49.920;17.868;2023-07-13T07:11:24;98369.13;;;22.08;74.03
69911;BME280;63555;49.920;17.868;2023-07-13T07:16:25;98372.34;;;22.32;73.11
69911;BME280;63555;49.920;17.868;2023-07-13T07:21:26;98375.06;;;22.45;72.32
69911;BME280;63555;49.920;17.868;2023-07-13T07:26:27;98378.38;;;22.47;71.33
69911;BME280;63555;49.920;17.868;2023-07-13T07:31:27;98387.28;;;22.47;70.99
69911;BME280;63555;49.920;17.868;2023-07-13T07:36:28;98389.53;;;22.44;70.73
69911;BME280;63555;49.920;17.868;2023-07-13T07:41:29;98387.25;;;22.41;70.44
69911;BME280;63555;49.920;17.868;2023-07-13T07:46:30;98398.78;;;22.35;69.87
69911;BME280;63555;49.920;17.868;2023-07-13T07:51:30;98423.94;;;21.92;70.23
69911;BME280;63555;49.920;17.868;2023-07-13T07:56:31;98429.06;;;21.38;70.31
69911;BME280;63555;49.920;17.868;2023-07-13T08:01:32;98428.97;;;21.10;70.26
69911;BME280;63555;49.920;17.868;2023-07-13T08:06:33;98455.41;;;20.92;69.88
69911;BME280;63555;49.920;17.868;2023-07-13T08:11:36;98457.38;;;20.68;70.46
69911;BME280;63555;49.920;17.868;2023-07-13T08:16:36;98463.28;;;20.20;70.54
69911;BME280;63555;49.920;17.868;2023-07-13T08:21:37;98482.63;;;19.55;72.18
69911;BME280;63555;49.920;17.868;2023-07-13T08:26:37;98503.25;;;18.37;77.10
69911;BME280;63555;49.920;17.868;2023-07-13T08:31:39;98521.75;;;17.33;83.61
69911;BME280;63555;49.920;17.868;2023-07-13T08:36:39;98525.25;;;16.67;89.24
69911;BME280;63555;49.920;17.868;2023-07-13T08:41:39;98522.94;;;16.46;93.43
69911;BME280;63555;49.920;17.868;2023-07-13T08:46:41;98512.03;;;16.31;95.98
69911;BME280;63555;49.920;17.868;2023-07-13T08:51:55;98535.59;;;16.18;97.43
69911;BME280;63555;49.920;17.868;2023-07-13T08:57:01;98560.00;;;16.13;99.26
69911;BME280;63555;49.920;17.868;2023-07-13T09:02:34;98566.66;;;16.17;100.00
69911;BME280;63555;49.920;17.868;2023-07-13T09:08:01;98572.47;;;16.13;100.00
69911;BME280;63555;49.920;17.868;2023-07-13T09:23:24;98583.47;;;16.18;100.00
69911;BME280;63555;49.920;17.868;2023-07-13T09:28:35;98574.19;;;16.22;100.00
69911;BME280;63555;49.920;17.868;2023-07-13T09:33:38;98561.75;;;16.31;100.00
69911;BME280;63555;49.920;17.868;2023-07-13T09:38:38;98560.91;;;16.48;100.00
69911;BME280;63555;49.920;17.868;2023-07-13T09:44:09;98562.41;;;16.50;100.00
69911;BME280;63555;49.920;17.868;2023-07-13T09:49:11;98557.09;;;16.50;100.00
69911;BME280;63555;49.920;17.868;2023-07-13T09:54:19;98544.59;;;16.77;100.00
69911;BME280;63555;49.920;17.868;2023-07-13T09:59:22;98548.56;;;17.31;100.00
69911;BME280;63555;49.920;17.868;2023-07-13T10:04:32;98549.50;;;18.13;100.00
69911;BME280;63555;49.920;17.868;2023-07-13T10:09:33;98551.88;;;18.80;100.00
69911;BME280;63555;49.920;17.868;2023-07-13T10:14:33;98558.50;;;18.92;100.00
69911;BME280;63555;49.920;17.868;2023-07-13T10:19:35;98557.28;;;18.63;100.00
69911;BME280;63555;49.920;17.868;2023-07-13T10:24:37;98560.09;;;18.70;100.00
69911;BME280;63555;49.920;17.868;2023-07-13T10:29:46;98567.69;;;18.89;100.00
69911;BME280;63555;49.920;17.868;2023-07-13T10:34:48;98565.22;;;19.50;100.00
69911;BME280;63555;49.920;17.868;2023-07-13T10:39:52;98571.19;;;20.43;100.00
69911;BME280;63555;49.920;17.868;2023-07-13T10:44:54;98580.75;;;20.90;100.00
69911;BME280;63555;49.920;17.868;2023-07-13T10:49:57;98582.19;;;20.48;100.00
69911;BME280;63555;49.920;17.868;2023-07-13T10:55:02;98578.25;;;20.21;100.00
69911;BME280;63555;49.920;17.868;2023-07-13T11:05:30;98567.56;;;19.76;100.00
69911;BME280;63555;49.920;17.868;2023-07-13T11:10:54;98575.25;;;19.56;100.00
69911;BME280;63555;49.920;17.868;2023-07-13T11:15:55;98572.91;;;19.76;100.00
69911;BME280;63555;49.920;17.868;2023-07-13T11:21:19;98571.19;;;20.43;100.00
69911;BME280;63555;49.920;17.868;2023-07-13T11:31:42;98581.47;;;23.32;100.00
69911;BME280;63555;49.920;17.868;2023-07-13T11:36:44;98598.88;;;24.17;100.00
69911;BME280;63555;49.920;17.868;2023-07-13T11:41:50;98600.50;;;25.55;100.00
69911;BME280;63555;49.920;17.868;2023-07-13T11:46:54;98593.09;;;26.88;91.50
69911;BME280;63555;49.920;17.868;2023-07-13T11:51:56;98604.28;;;26.23;88.21
69911;BME280;63555;49.920;17.868;2023-07-13T11:57:33;98604.09;;;25.42;88.21
69911;BME280;63555;49.920;17.868;2023-07-13T12:02:40;98596.81;;;24.71;87.58
69911;BME280;63555;49.920;17.868;2023-07-13T12:07:42;98587.03;;;23.91;86.69
69911;BME280;63555;49.920;17.868;2023-07-13T12:12:57;98603.84;;;24.26;90.50
69911;BME280;63555;49.920;17.868;2023-07-13T12:17:58;98591.03;;;25.84;82.07
69911;BME280;63555;49.920;17.868;2023-07-13T12:22:58;98582.75;;;26.10;78.61
69911;BME280;63555;49.920;17.868;2023-07-13T12:27:58;98589.72;;;25.93;72.45
69911;BME280;63555;49.920;17.868;2023-07-13T12:33:02;98593.06;;;27.13;73.19
69911;BME280;63555;49.920;17.868;2023-07-13T12:38:02;98587.72;;;28.14;65.43
69911;BME280;63555;49.920;17.868;2023-07-13T12:43:03;98591.81;;;28.82;62.91
69911;BME280;63555;49.920;17.868;2023-07-13T12:48:15;98597.84;;;28.96;61.85
69911;BME280;63555;49.920;17.868;2023-07-13T12:53:23;98599.63;;;28.78;61.86
69911;BME280;63555;49.920;17.868;2023-07-13T12:58:40;98602.81;;;29.39;52.35
69911;BME280;63555;49.920;17.868;2023-07-13T13:03:53;98586.97;;;29.59;50.69
69911;BME280;63555;49.920;17.868;2023-07-13T13:08:56;98598.50;;;29.26;51.39
69911;BME280;63555;49.920;17.868;2023-07-13T13:14:01;98596.75;;;28.27;52.81
69911;BME280;63555;49.920;17.868;2023-07-13T13:19:13;98586.25;;;27.88;53.39
69911;BME280;63555;49.920;17.868;2023-07-13T13:24:17;98581.94;;;28.11;51.53
69911;BME280;63555;49.920;17.868;2023-07-13T13:29:22;98581.94;;;28.64;51.70
69911;BME280;63555;49.920;17.868;2023-07-13T13:34:25;98581.53;;;28.61;50.33
69911;BME280;63555;49.920;17.868;2023-07-13T13:39:32;98577.28;;;29.63;49.37
69911;BME280;63555;49.920;17.868;2023-07-13T13:44:34;98567.91;;;30.50;45.64
69911;BME280;63555;49.920;17.868;2023-07-13T13:49:34;98560.28;;;31.07;44.24
69911;BME280;63555;49.920;17.868;2023-07-13T13:54:36;98547.03;;;30.55;45.69
69911;BME280;63555;49.920;17.868;2023-07-13T13:59:36;98543.63;;;31.03;45.08
69911;BME280;63555;49.920;17.868;2023-07-13T14:04:39;98547.34;;;31.63;43.35
69911;BME280;63555;49.920;17.868;2023-07-13T14:09:40;98540.66;;;31.49;42.32
69911;BME280;63555;49.920;17.868;2023-07-13T14:14:40;98534.28;;;31.92;42.73
69911;BME280;63555;49.920;17.868;2023-07-13T14:19:40;98540.19;;;32.43;42.11
69911;BME280;63555;49.920;17.868;2023-07-13T14:24:41;98535.09;;;31.92;43.06
69911;BME280;63555;49.920;17.868;2023-07-13T14:29:42;98531.78;;;31.85;42.16
69911;BME280;63555;49.920;17.868;2023-07-13T14:34:42;98546.53;;;31.89;41.95
69911;BME280;63555;49.920;17.868;2023-07-13T14:39:44;98554.41;;;30.38;43.61
69911;BME280;63555;49.920;17.868;2023-07-13T14:44:44;98568.47;;;30.01;44.26
69911;BME280;63555;49.920;17.868;2023-07-13T14:49:45;98577.63;;;30.29;44.47
69911;BME280;63555;49.920;17.868;2023-07-13T14:54:48;98558.06;;;30.82;43.79
69911;BME280;63555;49.920;17.868;2023-07-13T14:59:48;98554.19;;;31.00;43.01
69911;BME280;63555;49.920;17.868;2023-07-13T15:04:49;98554.53;;;30.15;43.54
69911;BME280;63555;49.920;17.868;2023-07-13T15:09:50;98536.56;;;29.40;44.83
69911;BME280;63555;49.920;17.868;2023-07-13T15:14:51;98537.97;;;27.97;46.73
69911;BME280;63555;49.920;17.868;2023-07-13T15:19:51;98535.69;;;27.04;48.77
69911;BME280;63555;49.920;17.868;2023-07-13T15:24:51;98546.53;;;27.34;49.02
69911;BME280;63555;49.920;17.868;2023-07-13T15:29:52;98558.66;;;28.33;47.81
69911;BME280;63555;49.920;17.868;2023-07-13T15:34:52;98549.22;;;28.82;45.12
69911;BME280;63555;49.920;17.868;2023-07-13T15:39:53;98534.34;;;28.50;44.85
69911;BME280;63555;49.920;17.868;2023-07-13T15:44:53;98541.44;;;28.39;44.05
69911;BME280;63555;49.920;17.868;2023-07-13T15:49:53;98544.34;;;28.03;43.48
69911;BME280;63555;49.920;17.868;2023-07-13T15:54:57;98544.91;;;28.05;43.86
69911;BME280;63555;49.920;17.868;2023-07-13T15:59:59;98545.38;;;28.02;44.18
69911;BME280;63555;49.920;17.868;2023-07-13T16:04:59;98534.56;;;27.72;44.36
69911;BME280;63555;49.920;17.868;2023-07-13T16:10:00;98549.47;;;27.81;44.87
69911;BME280;63555;49.920;17.868;2023-07-13T16:15:00;98561.03;;;27.88;45.39
69911;BME280;63555;49.920;17.868;2023-07-13T16:20:01;98578.75;;;27.72;45.86
69911;BME280;63555;49.920;17.868;2023-07-13T16:25:01;98585.75;;;27.13;46.44
69911;BME280;63555;49.920;17.868;2023-07-13T16:30:24;98591.97;;;26.27;47.31
69911;BME280;63555;49.920;17.868;2023-07-13T16:35:28;98585.88;;;25.76;47.85
69911;BME280;63555;49.920;17.868;2023-07-13T16:40:33;98579.88;;;25.29;49.63
69911;BME280;63555;49.920;17.868;2023-07-13T16:45:35;98580.56;;;24.91;50.21
69911;BME280;63555;49.920;17.868;2023-07-13T16:50:35;98585.66;;;24.48;51.38
69911;BME280;63555;49.920;17.868;2023-07-13T16:55:35;98586.22;;;24.24;51.79
69911;BME280;63555;49.920;17.868;2023-07-13T17:00:36;98597.00;;;23.91;52.61
69911;BME280;63555;49.920;17.868;2023-07-13T17:05:42;98582.66;;;23.64;53.25
69911;BME280;63555;49.920;17.868;2023-07-13T17:10:47;98574.44;;;23.37;54.14
69911;BME280;63555;49.920;17.868;2023-07-13T17:15:50;98560.69;;;23.12;54.56
69911;BME280;63555;49.920;17.868;2023-07-13T17:20:54;98570.34;;;22.94;55.41
69911;BME280;63555;49.920;17.868;2023-07-13T17:25:54;98583.56;;;22.88;55.39
69911;BME280;63555;49.920;17.868;2023-07-13T17:30:58;98588.31;;;22.86;55.75
69911;BME280;63555;49.920;17.868;2023-07-13T17:36:04;98595.81;;;22.70;55.84
69911;BME280;63555;49.920;17.868;2023-07-13T17:41:12;98601.31;;;22.55;56.25
69911;BME280;63555;49.920;17.868;2023-07-13T17:46:31;98612.38;;;22.45;56.34
69911;BME280;63555;49.920;17.868;2023-07-13T17:51:32;98611.25;;;22.33;56.76
69911;BME280;63555;49.920;17.868;2023-07-13T17:56:32;98622.53;;;22.22;57.13
69911;BME280;63555;49.920;17.868;2023-07-13T18:01:34;98617.97;;;22.01;58.37
69911;BME280;63555;49.920;17.868;2023-07-13T18:06:41;98623.59;;;21.85;58.59
69911;BME280;63555;49.920;17.868;2023-07-13T18:11:44;98615.22;;;21.73;59.05
69911;BME280;63555;49.920;17.868;2023-07-13T18:16:51;98629.88;;;21.56;60.03
69911;BME280;63555;49.920;17.868;2023-07-13T18:21:53;98636.50;;;21.24;61.28
69911;BME280;63555;49.920;17.868;2023-07-13T18:26:54;98653.03;;;20.98;62.43
69911;BME280;63555;49.920;17.868;2023-07-13T18:31:54;98654.88;;;20.83;62.90
69911;BME280;63555;49.920;17.868;2023-07-13T18:36:57;98646.88;;;20.60;63.99
69911;BME280;63555;49.920;17.868;2023-07-13T18:41:58;98648.63;;;20.30;65.14
69911;BME280;63555;49.920;17.868;2023-07-13T18:46:58;98639.66;;;20.00;66.31
69911;BME280;63555;49.920;17.868;2023-07-13T18:51:59;98649.56;;;19.68;67.51
69911;BME280;63555;49.920;17.868;2023-07-13T18:56:59;98646.34;;;19.42;67.78
69911;BME280;63555;49.920;17.868;2023-07-13T19:02:00;98630.41;;;19.18;68.61
69911;BME280;63555;49.920;17.868;2023-07-13T19:07:01;98646.69;;;18.92;69.88
69911;BME280;63555;49.920;17.868;2023-07-13T19:12:11;98651.41;;;18.73;70.44
69911;BME280;63555;49.920;17.868;2023-07-13T19:17:14;98665.59;;;18.58;71.04
69911;BME280;63555;49.920;17.868;2023-07-13T19:22:18;98678.63;;;18.44;71.54
69911;BME280;63555;49.920;17.868;2023-07-13T19:27:19;98686.81;;;18.27;72.02
69911;BME280;63555;49.920;17.868;2023-07-13T19:32:19;98680.75;;;18.08;72.84
69911;BME280;63555;49.920;17.868;2023-07-13T19:37:22;98687.06;;;17.91;73.39
69911;BME280;63555;49.920;17.868;2023-07-13T19:42:24;98685.53;;;17.72;73.84
69911;BME280;63555;49.920;17.868;2023-07-13T19:47:25;98705.28;;;17.54;74.17
69911;BME280;63555;49.920;17.868;2023-07-13T19:52:27;98707.66;;;17.31;74.92
69911;BME280;63555;49.920;17.868;2023-07-13T19:57:28;98709.75;;;17.11;75.58
69911;BME280;63555;49.920;17.868;2023-07-13T20:02:29;98712.47;;;16.93;76.08
69911;BME280;63555;49.920;17.868;2023-07-13T20:07:29;98715.03;;;16.77;76.42
69911;BME280;63555;49.920;17.868;2023-07-13T20:12:35;98722.72;;;16.62;76.82
69911;BME280;63555;49.920;17.868;2023-07-13T20:17:37;98720.88;;;16.45;77.63
69911;BME280;63555;49.920;17.868;2023-07-13T20:22:38;98721.59;;;16.29;77.71
69911;BME280;63555;49.920;17.868;2023-07-13T20:27:39;98720.47;;;16.14;78.47
69911;BME280;63555;49.920;17.868;2023-07-13T20:32:39;98723.72;;;15.90;79.25
69911;BME280;63555;49.920;17.868;2023-07-13T20:37:39;98734.88;;;15.76;79.56
69911;BME280;63555;49.920;17.868;2023-07-13T20:42:42;98730.75;;;15.64;79.61
69911;BME280;63555;49.920;17.868;2023-07-13T20:47:43;98724.56;;;15.53;80.02
69911;BME280;63555;49.920;17.868;2023-07-13T20:52:44;98736.09;;;15.44;80.12
69911;BME280;63555;49.920;17.868;2023-07-13T20:57:48;98739.09;;;15.32;80.61
69911;BME280;63555;49.920;17.868;2023-07-13T21:02:54;98741.78;;;15.22;80.84
69911;BME280;63555;49.920;17.868;2023-07-13T21:07:55;98741.13;;;15.10;80.99
69911;BME280;63555;49.920;17.868;2023-07-13T21:12:56;98735.00;;;15.00;81.14
69911;BME280;63555;49.920;17.868;2023-07-13T21:17:58;98739.09;;;14.94;81.59
69911;BME280;63555;49.920;17.868;2023-07-13T21:22:59;98735.75;;;14.83;81.64
69911;BME280;63555;49.920;17.868;2023-07-13T21:28:00;98755.03;;;14.65;82.47
69911;BME280;63555;49.920;17.868;2023-07-13T21:33:01;98752.25;;;14.57;82.47
69911;BME280;63555;49.920;17.868;2023-07-13T21:38:02;98749.34;;;14.51;82.56
69911;BME280;63555;49.920;17.868;2023-07-13T21:43:02;98758.00;;;14.43;83.03
69911;BME280;63555;49.920;17.868;2023-07-13T21:48:03;98751.81;;;14.33;82.67
69911;BME280;63555;49.920;17.868;2023-07-13T21:58:35;98755.59;;;14.11;83.36
69911;BME280;63555;49.920;17.868;2023-07-13T22:03:37;98754.59;;;14.02;83.31
69911;BME280;63555;49.920;17.868;2023-07-13T22:08:38;98770.06;;;13.88;83.72
69911;BME280;63555;49.920;17.868;2023-07-13T22:13:39;98775.19;;;13.80;83.74
69911;BME280;63555;49.920;17.868;2023-07-13T22:18:40;98772.50;;;13.70;84.11
69911;BME280;63555;49.920;17.868;2023-07-13T22:23:41;98769.03;;;13.69;84.11
69911;BME280;63555;49.920;17.868;2023-07-13T22:28:42;98776.41;;;13.66;84.07
69911;BME280;63555;49.920;17.868;2023-07-13T22:33:43;98765.47;;;13.50;84.89
69911;BME280;63555;49.920;17.868;2023-07-13T22:38:44;98767.81;;;13.43;84.77
69911;BME280;63555;49.920;17.868;2023-07-13T22:43:45;98759.19;;;13.41;84.90
69911;BME280;63555;49.920;17.868;2023-07-13T22:48:57;98770.03;;;13.38;85.20
69911;BME280;63555;49.920;17.868;2023-07-13T22:53:58;98774.91;;;13.33;85.01
69911;BME280;63555;49.920;17.868;2023-07-13T22:58:59;98780.00;;;13.25;85.12
69911;BME280;63555;49.920;17.868;2023-07-13T23:04:00;98778.75;;;13.19;85.05
69911;BME280;63555;49.920;17.868;2023-07-13T23:09:04;98772.97;;;13.14;85.58
69911;BME280;63555;49.920;17.868;2023-07-13T23:14:05;98773.94;;;13.13;85.81
69911;BME280;63555;49.920;17.868;2023-07-13T23:19:18;98782.16;;;13.10;85.87
69911;BME280;63555;49.920;17.868;2023-07-13T23:24:19;98789.63;;;13.05;85.42
69911;BME280;63555;49.920;17.868;2023-07-13T23:29:20;98787.88;;;12.94;86.31
69911;BME280;63555;49.920;17.868;2023-07-13T23:34:20;98789.22;;;12.89;86.12
69911;BME280;63555;49.920;17.868;2023-07-13T23:39:21;98793.81;;;12.87;86.12
69911;BME280;63555;49.920;17.868;2023-07-13T23:44:21;98798.53;;;12.83;86.01
69911;BME280;63555;49.920;17.868;2023-07-13T23:49:28;98804.09;;;12.80;86.66
69911;BME280;63555;49.920;17.868;2023-07-13T23:54:31;98813.97;;;12.78;86.46
69911;BME280;63555;49.920;17.868;2023-07-13T23:59:32;98818.41;;;12.77;86.41
